Time;durP1;ratioP1;P1;durP2;ratioP2;P2;SDS_P1;SDS_P2;PMS_P1;PMS_P2;Temp;Humidity;BMP_temperature;BMP_pressure;BME280_temperature;BME280_humidity;BME280_pressure;Samples;Min_cycle;Max_cycle;Signal;HPM_P1;HPM_P2
2022/07/14 00:01:23;;;;;;;12.35;2.50;;;;;;;;;;4958364;28;20339;-68
2022/07/14 00:03:49;;;;;;;5.57;2.20;;;;;;;;;;4974825;28;20026;-68
2022/07/14 00:06:16;;;;;;;4.75;2.05;;;;;;;;;;4974867;28;20035;-68
2022/07/14 00:08:44;;;;;;;6.18;1.95;;;;;;;;;;4974311;28;20103;-68
2022/07/14 00:11:11;;;;;;;7.43;2.17;;;;;;;;;;4974252;28;20037;-68
2022/07/14 00:13:37;;;;;;;9.18;2.33;;;;;;;;;;4974541;28;20470;-67
2022/07/14 00:16:04;;;;;;;4.20;1.90;;;;;;;;;;4975934;28;20082;-69
2022/07/14 00:18:30;;;;;;;9.48;1.90;;;;;;;;;;4975252;28;20462;-69
2022/07/14 00:20:56;;;;;;;4.57;1.80;;;;;;;;;;4975386;28;20475;-67
2022/07/14 00:23:24;;;;;;;3.55;1.80;;;;;;;;;;4975767;28;20110;-68
2022/07/14 00:25:51;;;;;;;8.48;1.90;;;;;;;;;;4975879;28;20034;-67
2022/07/14 00:28:17;;;;;;;5.07;1.63;;;;;;;;;;4975798;28;20454;-68
2022/07/14 00:30:45;;;;;;;4.70;2.13;;;;;;;;;;4974355;28;20043;-67
2022/07/14 00:33:10;;;;;;;4.13;1.73;;;;;;;;;;4975959;28;20019;-73
2022/07/14 00:35:37;;;;;;;4.55;1.63;;;;;;;;;;4974455;28;20070;-69
2022/07/14 00:38:05;;;;;;;3.78;1.55;;;;;;;;;;4974482;28;20038;-71
2022/07/14 00:40:31;;;;;;;2.10;1.30;;;;;;;;;;4975670;28;20533;-74
2022/07/14 00:42:57;;;;;;;3.65;1.50;;;;;;;;;;4958410;28;20031;-67
2022/07/14 00:45:26;;;;;;;3.80;1.70;;;;;;;;;;4974204;28;20081;-67
2022/07/14 00:47:51;;;;;;;2.50;1.30;;;;;;;;;;4974239;28;20035;-69
2022/07/14 00:50:19;;;;;;;7.47;1.55;;;;;;;;;;4975250;28;20433;-68
2022/07/14 00:52:47;;;;;;;5.63;1.80;;;;;;;;;;4974029;28;20498;-69
2022/07/14 00:55:15;;;;;;;4.32;1.77;;;;;;;;;;4975208;28;20035;-69
2022/07/14 00:57:42;;;;;;;7.82;2.38;;;;;;;;;;4975305;28;20125;-71
2022/07/14 01:00:11;;;;;;;2.72;1.60;;;;;;;;;;4974243;28;20446;-67
2022/07/14 01:02:37;;;;;;;4.15;1.77;;;;;;;;;;4975600;28;20030;-68
2022/07/14 01:05:05;;;;;;;2.58;1.52;;;;;;;;;;4974832;28;20497;-68
2022/07/14 01:07:32;;;;;;;5.07;2.17;;;;;;;;;;4975233;28;20034;-69
2022/07/14 01:09:58;;;;;;;4.60;1.67;;;;;;;;;;4973659;28;20504;-69
2022/07/14 01:12:24;;;;;;;5.18;1.88;;;;;;;;;;4973860;28;20031;-67
2022/07/14 01:14:50;;;;;;;3.03;1.70;;;;;;;;;;4973772;28;20442;-71
2022/07/14 01:17:15;;;;;;;4.25;1.73;;;;;;;;;;4974994;28;20117;-67
2022/07/14 01:19:41;;;;;;;5.25;1.65;;;;;;;;;;4974452;28;20041;-67
2022/07/14 01:22:08;;;;;;;7.35;2.08;;;;;;;;;;4970438;28;20497;-67
2022/07/14 01:24:35;;;;;;;5.50;1.75;;;;;;;;;;4955487;29;20082;-68
2022/07/14 01:27:01;;;;;;;6.47;1.60;;;;;;;;;;4954657;29;20482;-67
2022/07/14 01:29:28;;;;;;;4.13;1.60;;;;;;;;;;4955349;28;20039;-67
2022/07/14 01:31:54;;;;;;;4.30;1.65;;;;;;;;;;4955231;29;20058;-68
2022/07/14 01:34:20;;;;;;;6.00;2.03;;;;;;;;;;4955151;28;20032;-68
2022/07/14 01:36:49;;;;;;;4.60;2.25;;;;;;;;;;4954788;29;20042;-68
2022/07/14 01:39:15;;;;;;;7.03;2.35;;;;;;;;;;4954867;28;20035;-67
2022/07/14 01:41:41;;;;;;;3.33;1.50;;;;;;;;;;4954566;28;20027;-67
2022/07/14 01:44:07;;;;;;;6.57;1.80;;;;;;;;;;4954570;29;20070;-67
2022/07/14 01:46:33;;;;;;;4.80;1.70;;;;;;;;;;4953819;29;20023;-67
2022/07/14 01:49:01;;;;;;;3.58;1.70;;;;;;;;;;4954160;29;20047;-67
2022/07/14 01:51:28;;;;;;;4.95;1.85;;;;;;;;;;4954096;29;20594;-67
2022/07/14 01:53:55;;;;;;;5.07;2.03;;;;;;;;;;4953387;29;20042;-67
2022/07/14 01:56:22;;;;;;;3.53;1.50;;;;;;;;;;4954722;29;20051;-67
2022/07/14 01:58:52;;;;;;;2.47;1.33;;;;;;;;;;4953619;29;20355;-68
2022/07/14 02:04:04;;;;;;;5.18;1.33;;;;;;;;;;4954499;29;20031;-67
2022/07/14 02:06:30;;;;;;;4.07;1.35;;;;;;;;;;4954763;29;20073;-67
2022/07/14 02:08:57;;;;;;;3.47;1.60;;;;;;;;;;4953241;29;20032;-68
2022/07/14 02:14:09;;;;;;;5.25;2.13;;;;;;;;;;4953435;29;20098;-69
2022/07/14 02:16:35;;;;;;;5.22;1.90;;;;;;;;;;4953437;29;20034;-71
2022/07/14 02:19:01;;;;;;;6.45;1.92;;;;;;;;;;4953285;29;20027;-67
2022/07/14 02:21:28;;;;;;;3.95;1.80;;;;;;;;;;4954494;29;20027;-67
2022/07/14 02:23:55;;;;;;;5.75;2.28;;;;;;;;;;4952906;29;20161;-68
2022/07/14 02:26:23;;;;;;;5.43;2.13;;;;;;;;;;4952987;29;20113;-68
2022/07/14 02:28:49;;;;;;;4.97;2.00;;;;;;;;;;4953052;29;20035;-68
2022/07/14 02:31:15;;;;;;;7.25;2.30;;;;;;;;;;4957466;28;20039;-67
2022/07/14 02:33:41;;;;;;;4.32;1.92;;;;;;;;;;4973359;28;20033;-67
2022/07/14 02:36:08;;;;;;;2.90;1.58;;;;;;;;;;4972253;28;20476;-68
2022/07/14 02:38:36;;;;;;;5.63;1.60;;;;;;;;;;4972474;28;20044;-69
2022/07/14 02:41:04;;;;;;;3.45;1.63;;;;;;;;;;4973200;28;20027;-70
2022/07/14 02:43:34;;;;;;;4.32;1.65;;;;;;;;;;4971962;28;20474;-69
2022/07/14 02:46:02;;;;;;;5.22;1.70;;;;;;;;;;4971772;28;20039;-68
2022/07/14 02:48:30;;;;;;;4.53;1.85;;;;;;;;;;4972079;28;20054;-69
2022/07/14 02:51:07;;;;;;;7.55;1.40;;;;;;;;;;4971849;28;20034;-68
2022/07/14 02:53:35;;;;;;;3.10;1.60;;;;;;;;;;4973021;28;20089;-68
2022/07/14 02:56:05;;;;;;;3.05;1.48;;;;;;;;;;4971840;28;20035;-70
2022/07/14 02:58:34;;;;;;;5.10;1.73;;;;;;;;;;4988200;28;20039;-71
2022/07/14 03:01:05;;;;;;;2.15;1.33;;;;;;;;;;4972110;28;20035;-69
2022/07/14 03:03:33;;;;;;;4.32;1.70;;;;;;;;;;4971917;28;20077;-69
2022/07/14 03:05:59;;;;;;;6.75;2.35;;;;;;;;;;4971259;28;20038;-69
2022/07/14 03:08:24;;;;;;;2.47;1.70;;;;;;;;;;4971934;28;20398;-68
2022/07/14 03:10:50;;;;;;;5.65;1.67;;;;;;;;;;4973163;28;20033;-68
2022/07/14 03:13:17;;;;;;;4.13;1.67;;;;;;;;;;4967828;28;20121;-67
2022/07/14 03:15:45;;;;;;;8.13;2.13;;;;;;;;;;4964552;28;20066;-68
2022/07/14 03:18:12;;;;;;;6.38;1.60;;;;;;;;;;4955982;28;20089;-67
2022/07/14 03:20:40;;;;;;;4.82;1.73;;;;;;;;;;4969701;28;20027;-69
2022/07/14 03:23:05;;;;;;;5.72;1.90;;;;;;;;;;4985760;28;20090;-68
2022/07/14 03:25:32;;;;;;;12.23;3.25;;;;;;;;;;4984563;28;20561;-68
2022/07/14 03:27:57;;;;;;;5.43;2.00;;;;;;;;;;4952404;29;20035;-68
2022/07/14 03:30:29;;;;;;;12.80;2.38;;;;;;;;;;4952434;29;20050;-68
2022/07/14 03:32:55;;;;;;;18.73;3.45;;;;;;;;;;4952344;29;20381;-68
2022/07/14 03:35:21;;;;;;;11.02;2.60;;;;;;;;;;4965708;28;20033;-68
2022/07/14 03:37:49;;;;;;;14.00;3.17;;;;;;;;;;4971269;28;20053;-68
2022/07/14 03:40:15;;;;;;;16.85;3.00;;;;;;;;;;4971338;28;20034;-68
2022/07/14 03:42:42;;;;;;;9.98;2.25;;;;;;;;;;4971498;28;20041;-68
2022/07/14 03:45:08;;;;;;;8.20;2.35;;;;;;;;;;4972639;28;20101;-69
2022/07/14 03:47:34;;;;;;;8.27;2.30;;;;;;;;;;4971491;28;20118;-68
2022/07/14 03:50:02;;;;;;;14.65;3.30;;;;;;;;;;4971199;28;20033;-68
2022/07/14 03:52:30;;;;;;;8.32;2.10;;;;;;;;;;4971069;28;20652;-69
2022/07/14 03:54:56;;;;;;;7.18;1.90;;;;;;;;;;4970379;28;20058;-70
2022/07/14 03:57:23;;;;;;;5.38;2.22;;;;;;;;;;4970872;28;20510;-68
2022/07/14 03:59:49;;;;;;;4.22;1.80;;;;;;;;;;4972233;28;20117;-68
2022/07/14 04:02:17;;;;;;;4.47;1.92;;;;;;;;;;4971138;28;20066;-70
2022/07/14 04:04:42;;;;;;;8.27;2.53;;;;;;;;;;4971063;28;20121;-68
2022/07/14 04:07:09;;;;;;;9.98;2.38;;;;;;;;;;4974670;28;20035;-68
2022/07/14 04:09:35;;;;;;;12.38;3.08;;;;;;;;;;4974696;28;20027;-68
2022/07/14 04:12:02;;;;;;;7.55;2.50;;;;;;;;;;4990660;28;20074;-70
2022/07/14 04:14:30;;;;;;;6.03;1.92;;;;;;;;;;4974374;28;20386;-68
2022/07/14 04:16:57;;;;;;;6.50;1.98;;;;;;;;;;4963120;28;20039;-69
2022/07/14 04:19:23;;;;;;;3.83;1.83;;;;;;;;;;4939400;29;20030;-68
2022/07/14 04:21:49;;;;;;;4.72;2.10;;;;;;;;;;4954843;29;20047;-68
2022/07/14 04:24:17;;;;;;;6.55;2.17;;;;;;;;;;4965750;28;20038;-67
2022/07/14 04:26:45;;;;;;;6.88;2.15;;;;;;;;;;4954839;28;20034;-72
2022/07/14 04:29:10;;;;;;;13.77;2.83;;;;;;;;;;4954924;29;20023;-68
2022/07/14 04:31:36;;;;;;;2.95;1.55;;;;;;;;;;4964618;28;20050;-68
2022/07/14 04:34:04;;;;;;;5.80;1.77;;;;;;;;;;4973865;28;20033;-68
2022/07/14 04:36:32;;;;;;;11.00;2.25;;;;;;;;;;4973820;28;20375;-72
2022/07/14 04:39:00;;;;;;;4.13;1.50;;;;;;;;;;4972644;28;20474;-68
2022/07/14 04:41:29;;;;;;;11.23;2.10;;;;;;;;;;4972677;28;20067;-67
2022/07/14 04:43:55;;;;;;;4.85;1.75;;;;;;;;;;4973065;28;20115;-71
2022/07/14 04:46:22;;;;;;;7.30;1.60;;;;;;;;;;4989301;28;20518;-68
2022/07/14 04:54:26;;;;;;;7.60;1.50;;;;;;;;;;4954753;28;20043;-69
2022/07/14 04:57:19;;;;;;;3.53;1.40;;;;;;;;;;4949717;28;20082;-71
2022/07/14 04:59:47;;;;;;;5.40;1.48;;;;;;;;;;4972750;28;20069;-70
2022/07/14 05:02:14;;;;;;;4.10;1.65;;;;;;;;;;4969231;28;20087;-68
2022/07/14 05:04:41;;;;;;;5.70;1.50;;;;;;;;;;4973590;28;20035;-69
2022/07/14 05:07:08;;;;;;;7.85;1.90;;;;;;;;;;4973440;28;20033;-68
2022/07/14 05:09:38;;;;;;;5.95;1.88;;;;;;;;;;4969521;28;20038;-69
2022/07/14 05:12:05;;;;;;;6.80;1.60;;;;;;;;;;4953839;28;20741;-69
2022/07/14 05:14:33;;;;;;;7.93;1.63;;;;;;;;;;4970574;28;20030;-68
2022/07/14 05:17:01;;;;;;;4.18;1.60;;;;;;;;;;4979365;28;20042;-70
2022/07/14 05:19:27;;;;;;;7.50;1.98;;;;;;;;;;4958227;28;20031;-69
2022/07/14 05:21:53;;;;;;;5.47;1.80;;;;;;;;;;4953779;28;20034;-70
2022/07/14 05:24:22;;;;;;;6.28;1.60;;;;;;;;;;4952561;29;20066;-70
2022/07/14 05:26:48;;;;;;;6.45;1.70;;;;;;;;;;4952699;29;20035;-69
2022/07/14 05:29:14;;;;;;;9.23;2.00;;;;;;;;;;4967729;28;20118;-70
2022/07/14 05:31:40;;;;;;;7.20;2.13;;;;;;;;;;4971993;28;20130;-70
2022/07/14 05:34:06;;;;;;;9.23;1.70;;;;;;;;;;4972046;28;20027;-71
2022/07/14 05:36:34;;;;;;;3.75;1.30;;;;;;;;;;4972645;28;20043;-69
2022/07/14 05:39:01;;;;;;;7.43;1.50;;;;;;;;;;4989612;28;20086;-71
2022/07/14 05:41:28;;;;;;;6.90;1.98;;;;;;;;;;4973230;28;20042;-68
2022/07/14 05:43:54;;;;;;;4.97;1.27;;;;;;;;;;4974934;28;20422;-69
2022/07/14 05:46:20;;;;;;;9.45;1.77;;;;;;;;;;4974946;28;20031;-70
2022/07/14 05:48:47;;;;;;;5.57;1.30;;;;;;;;;;4973605;28;20494;-69
2022/07/14 05:51:15;;;;;;;4.53;1.50;;;;;;;;;;4975058;28;20035;-73
2022/07/14 05:53:45;;;;;;;11.00;1.90;;;;;;;;;;4964150;28;20085;-70
2022/07/14 05:56:17;;;;;;;8.80;2.47;;;;;;;;;;4953643;29;20047;-75
2022/07/14 05:58:45;;;;;;;10.00;3.00;;;;;;;;;;4953934;29;20035;-70
2022/07/14 06:01:12;;;;;;;7.35;2.60;;;;;;;;;;4967916;28;20054;-72
2022/07/14 06:03:38;;;;;;;6.88;2.70;;;;;;;;;;4972598;28;20436;-69
2022/07/14 06:06:06;;;;;;;9.38;3.00;;;;;;;;;;4973192;28;20494;-74
2022/07/14 06:08:33;;;;;;;5.85;1.45;;;;;;;;;;4973661;28;20375;-73
2022/07/14 06:10:59;;;;;;;3.10;1.23;;;;;;;;;;4974377;28;20027;-70
2022/07/14 06:13:29;;;;;;;5.13;1.42;;;;;;;;;;4973047;28;20130;-72
2022/07/14 06:15:57;;;;;;;4.85;1.73;;;;;;;;;;4973329;28;20042;-75
2022/07/14 06:18:23;;;;;;;4.38;1.17;;;;;;;;;;4972898;28;20114;-68
2022/07/14 06:20:50;;;;;;;2.13;1.08;;;;;;;;;;4978540;28;20057;-69
2022/07/14 06:23:16;;;;;;;3.03;1.13;;;;;;;;;;4991885;28;20038;-69
2022/07/14 06:25:44;;;;;;;4.90;1.30;;;;;;;;;;4972833;28;20090;-70
2022/07/14 06:28:12;;;;;;;3.58;1.30;;;;;;;;;;4953157;28;20486;-68
2022/07/14 06:30:40;;;;;;;2.08;0.90;;;;;;;;;;4953107;28;20035;-69
2022/07/14 06:33:06;;;;;;;4.93;1.27;;;;;;;;;;4953518;28;20039;-68
2022/07/14 06:35:32;;;;;;;3.85;1.67;;;;;;;;;;4953162;28;20031;-66
2022/07/14 06:37:59;;;;;;;7.13;1.85;;;;;;;;;;4958317;28;20078;-71
2022/07/14 06:40:25;;;;;;;3.90;1.00;;;;;;;;;;4972893;28;20037;-70
2022/07/14 06:42:52;;;;;;;3.55;1.00;;;;;;;;;;4988898;28;20035;-71
2022/07/14 06:45:35;;;;;;;;;;;;;;;;;;4972832;28;20058;-70
2022/07/14 06:48:01;;;;;;;7.70;1.58;;;;;;;;;;4988968;28;19957;-70
2022/07/14 06:50:27;;;;;;;2.20;1.13;;;;;;;;;;4968054;28;20070;-70
2022/07/14 06:52:54;;;;;;;5.70;1.10;;;;;;;;;;4953174;29;20123;-70
2022/07/14 06:55:20;;;;;;;4.80;1.20;;;;;;;;;;4954303;28;20094;-70
2022/07/14 06:57:46;;;;;;;2.40;1.08;;;;;;;;;;4954351;28;20154;-70
2022/07/14 07:00:12;;;;;;;1.85;1.10;;;;;;;;;;4954112;28;20210;-70
2022/07/14 07:02:38;;;;;;;7.30;2.75;;;;;;;;;;4954059;28;20445;-71
2022/07/14 07:07:57;;;;;;;3.08;1.10;;;;;;;;;;4973680;28;20030;-70
2022/07/14 07:10:23;;;;;;;1.48;0.90;;;;;;;;;;4974770;28;20039;-70
2022/07/14 07:12:48;;;;;;;6.50;1.38;;;;;;;;;;4973450;28;20031;-69
2022/07/14 07:15:14;;;;;;;6.47;1.08;;;;;;;;;;4973264;28;20117;-69
2022/07/14 07:17:40;;;;;;;4.90;1.15;;;;;;;;;;4972561;28;20031;-69
2022/07/14 07:20:07;;;;;;;4.28;1.10;;;;;;;;;;4973469;28;20497;-70
2022/07/14 07:22:32;;;;;;;4.53;1.10;;;;;;;;;;4973559;28;20409;-70
2022/07/14 07:24:58;;;;;;;6.07;1.10;;;;;;;;;;4972345;28;20035;-71
2022/07/14 07:27:24;;;;;;;4.18;1.13;;;;;;;;;;4973118;28;20058;-70
2022/07/14 07:29:50;;;;;;;1.35;1.00;;;;;;;;;;4972303;28;20043;-70
2022/07/14 07:32:16;;;;;;;2.42;0.80;;;;;;;;;;4973166;28;20031;-71
2022/07/14 07:34:43;;;;;;;2.92;1.00;;;;;;;;;;4972879;28;20069;-70
2022/07/14 07:37:09;;;;;;;3.70;1.33;;;;;;;;;;4972806;28;20030;-70
2022/07/14 07:39:35;;;;;;;1.88;0.90;;;;;;;;;;4973028;28;20036;-69
2022/07/14 07:42:01;;;;;;;3.72;1.00;;;;;;;;;;4976156;28;20050;-70
2022/07/14 07:44:29;;;;;;;2.05;0.98;;;;;;;;;;4976968;28;20142;-69
2022/07/14 07:46:55;;;;;;;4.50;1.42;;;;;;;;;;4977019;28;20031;-70
2022/07/14 07:49:20;;;;;;;6.00;1.20;;;;;;;;;;4976905;28;20050;-69
2022/07/14 07:51:46;;;;;;;2.22;1.05;;;;;;;;;;4976876;28;20050;-71
2022/07/14 07:54:12;;;;;;;2.97;1.27;;;;;;;;;;4976144;28;20405;-70
2022/07/14 07:56:38;;;;;;;1.73;0.90;;;;;;;;;;4976329;28;20050;-70
2022/07/14 07:59:04;;;;;;;5.65;0.90;;;;;;;;;;4976409;28;20039;-68
2022/07/14 08:01:29;;;;;;;2.22;0.88;;;;;;;;;;4976723;28;20039;-73
2022/07/14 08:03:55;;;;;;;3.28;1.67;;;;;;;;;;4976749;28;20030;-71
2022/07/14 08:06:21;;;;;;;2.60;0.98;;;;;;;;;;4974482;28;20063;-73
2022/07/14 08:08:47;;;;;;;2.50;1.00;;;;;;;;;;4956851;28;20040;-71
2022/07/14 08:11:13;;;;;;;1.30;0.90;;;;;;;;;;4960204;28;20015;-70
2022/07/14 08:13:38;;;;;;;2.97;2.25;;;;;;;;;;4976447;28;20462;-70
2022/07/14 08:16:05;;;;;;;1.40;0.95;;;;;;;;;;4976377;28;20098;-70
2022/07/14 08:18:31;;;;;;;4.28;1.13;;;;;;;;;;4976490;28;20062;-70
2022/07/14 08:24:37;;;;;;;1.48;0.90;;;;;;;;;;4958915;28;20094;-70
2022/07/14 08:27:03;;;;;;;4.28;1.40;;;;;;;;;;4956707;28;20479;-70
2022/07/14 08:29:29;;;;;;;2.28;1.10;;;;;;;;;;4956763;28;20039;-70
2022/07/14 08:31:55;;;;;;;2.95;0.90;;;;;;;;;;4959180;28;20038;-70
2022/07/14 08:34:21;;;;;;;3.67;0.93;;;;;;;;;;4963450;28;20125;-70
2022/07/14 08:36:48;;;;;;;2.60;1.00;;;;;;;;;;4956651;28;20051;-69
2022/07/14 08:39:15;;;;;;;4.40;0.90;;;;;;;;;;4956696;28;20027;-69
2022/07/14 08:41:41;;;;;;;3.53;1.52;;;;;;;;;;4956868;28;20106;-70
2022/07/14 08:44:08;;;;;;;2.10;1.00;;;;;;;;;;4956664;28;20031;-70
2022/07/14 08:46:36;;;;;;;5.28;1.02;;;;;;;;;;4954913;28;20466;-69
2022/07/14 08:49:06;;;;;;;5.25;0.80;;;;;;;;;;4956398;28;20122;-70
2022/07/14 08:51:39;;;;;;;3.08;1.20;;;;;;;;;;4956205;28;20522;-70
2022/07/14 08:54:05;;;;;;;4.32;1.10;;;;;;;;;;4956268;29;20039;-70
2022/07/14 08:56:32;;;;;;;3.60;1.48;;;;;;;;;;4955828;28;20133;-71
2022/07/14 08:58:58;;;;;;;2.67;1.15;;;;;;;;;;4971991;28;20482;-69
2022/07/14 09:01:26;;;;;;;1.65;0.80;;;;;;;;;;4976275;28;20023;-71
2022/07/14 09:03:53;;;;;;;3.80;1.10;;;;;;;;;;4978739;28;20054;-70
2022/07/14 09:06:54;;;;;;;2.92;1.30;;;;;;;;;;4974750;28;20054;-70
2022/07/14 09:09:24;;;;;;;1.88;0.90;;;;;;;;;;4975708;28;20109;-69
2022/07/14 09:11:54;;;;;;;2.47;1.10;;;;;;;;;;4975657;28;20046;-71
2022/07/14 09:14:20;;;;;;;2.50;1.30;;;;;;;;;;4975501;28;20031;-69
2022/07/14 09:16:46;;;;;;;3.53;1.10;;;;;;;;;;4975468;28;20169;-70
2022/07/14 09:19:15;;;;;;;3.17;0.93;;;;;;;;;;4975475;28;20067;-70
2022/07/14 09:21:55;;;;;;;2.55;1.10;;;;;;;;;;4975751;28;20113;-70
2022/07/14 09:24:22;;;;;;;2.83;1.13;;;;;;;;;;4975512;28;20039;-72
2022/07/14 09:26:51;;;;;;;2.95;1.27;;;;;;;;;;4975516;28;20023;-70
2022/07/14 09:29:23;;;;;;;3.42;1.08;;;;;;;;;;4975328;28;20031;-70
2022/07/14 09:31:49;;;;;;;1.33;0.80;;;;;;;;;;4975459;28;20580;-69
2022/07/14 09:34:31;;;;;;;3.90;1.10;;;;;;;;;;4975406;28;20501;-69
2022/07/14 09:37:30;;;;;;;8.02;1.40;;;;;;;;;;4975166;28;20061;-70
2022/07/14 09:39:57;;;;;;;6.22;1.10;;;;;;;;;;4942990;28;20051;-70
2022/07/14 09:43:01;;;;;;;6.18;1.10;;;;;;;;;;4975154;28;20173;-70
2022/07/14 09:45:32;;;;;;;1.73;1.20;;;;;;;;;;4974564;28;20035;-70
2022/07/14 09:48:07;;;;;;;2.60;1.23;;;;;;;;;;4974913;28;20098;-71
2022/07/14 09:50:43;;;;;;;3.25;0.95;;;;;;;;;;4973909;28;20066;-72
2022/07/14 09:53:26;;;;;;;3.83;1.02;;;;;;;;;;4975146;28;20038;-71
2022/07/14 09:56:06;;;;;;;6.38;1.45;;;;;;;;;;4974703;28;20031;-71
2022/07/14 09:58:40;;;;;;;4.28;1.15;;;;;;;;;;4974516;28;20070;-70
2022/07/14 10:01:09;;;;;;;4.90;1.20;;;;;;;;;;4973728;28;20078;-71
2022/07/14 10:03:39;;;;;;;4.88;1.40;;;;;;;;;;4974192;28;20022;-71
2022/07/14 10:06:06;;;;;;;2.47;0.93;;;;;;;;;;4975083;28;20122;-70
2022/07/14 10:08:35;;;;;;;4.00;1.02;;;;;;;;;;4974970;28;20019;-70
2022/07/14 10:11:03;;;;;;;3.35;1.15;;;;;;;;;;4974543;28;20082;-70
2022/07/14 10:13:30;;;;;;;2.20;1.00;;;;;;;;;;4974576;28;20426;-71
2022/07/14 10:15:56;;;;;;;2.33;0.82;;;;;;;;;;4974350;28;20070;-70
2022/07/14 10:18:25;;;;;;;2.00;1.02;;;;;;;;;;4974275;28;20075;-71
2022/07/14 10:20:53;;;;;;;2.40;1.02;;;;;;;;;;4975045;28;20394;-70
2022/07/14 10:23:21;;;;;;;5.20;1.10;;;;;;;;;;4974566;28;20035;-70
2022/07/14 10:25:49;;;;;;;2.55;1.20;;;;;;;;;;4974715;28;20038;-71
2022/07/14 10:28:19;;;;;;;4.05;1.25;;;;;;;;;;4974720;28;20085;-71
2022/07/14 10:31:00;;;;;;;1.98;1.08;;;;;;;;;;4974621;28;20034;-71
2022/07/14 10:33:53;;;;;;;1.48;0.90;;;;;;;;;;4974393;28;20035;-70
2022/07/14 10:36:23;;;;;;;;;;;;;;;;;;4974172;28;20070;-71
2022/07/14 10:39:28;;;;;;;3.95;1.50;;;;;;;;;;4974067;28;19918;-70
2022/07/14 10:42:21;;;;;;;2.30;1.17;;;;;;;;;;4974102;28;20126;-71
2022/07/14 10:44:47;;;;;;;;;;;;;;;;;;4974392;28;20115;-70
2022/07/14 10:47:17;;;;;;;3.47;1.40;;;;;;;;;;4974099;28;19972;-71
2022/07/14 10:50:09;;;;;;;4.32;1.17;;;;;;;;;;4973932;28;20109;-71
2022/07/14 10:52:37;;;;;;;3.10;1.42;;;;;;;;;;4974025;28;20035;-71
2022/07/14 10:55:22;;;;;;;1.65;0.95;;;;;;;;;;4973851;28;20109;-70
2022/07/14 10:58:01;;;;;;;3.40;0.93;;;;;;;;;;4972442;28;20050;-71
2022/07/14 11:00:44;;;;;;;2.00;1.10;;;;;;;;;;4973820;28;20034;-70
2022/07/14 11:03:32;;;;;;;1.30;1.05;;;;;;;;;;4973514;28;20039;-69
2022/07/14 11:06:03;;;;;;;3.30;1.20;;;;;;;;;;4973499;28;20034;-70
2022/07/14 11:08:30;;;;;;;2.70;1.20;;;;;;;;;;4973778;28;20027;-71
2022/07/14 11:10:58;;;;;;;3.03;1.10;;;;;;;;;;4973452;28;20031;-71
2022/07/14 11:13:24;;;;;;;2.55;1.05;;;;;;;;;;4973225;28;20035;-70
2022/07/14 11:16:04;;;;;;;4.85;2.38;;;;;;;;;;4973921;28;20023;-71
2022/07/14 11:18:37;;;;;;;1.95;1.10;;;;;;;;;;4973675;28;20039;-71
2022/07/14 11:21:08;;;;;;;;;;;;;;;;;;4972636;28;20102;-71
2022/07/14 11:23:56;;;;;;;1.95;1.17;;;;;;;;;;4964285;28;20396;-70
2022/07/14 11:26:46;;;;;;;2.20;1.15;;;;;;;;;;4954144;29;20114;-70
2022/07/14 11:29:13;;;;;;;5.03;1.38;;;;;;;;;;4963966;28;20061;-69
2022/07/14 11:31:50;;;;;;;2.05;1.00;;;;;;;;;;4973314;28;20038;-69
2022/07/14 11:37:11;;;;;;;1.38;0.98;;;;;;;;;;4973280;28;20057;-71
2022/07/14 11:39:39;;;;;;;3.35;1.15;;;;;;;;;;4973324;28;20094;-70
2022/07/14 11:42:11;;;;;;;3.08;1.10;;;;;;;;;;4973055;28;20489;-69
2022/07/14 11:44:40;;;;;;;2.33;1.10;;;;;;;;;;4972718;28;20038;-70
2022/07/14 11:47:09;;;;;;;2.58;1.30;;;;;;;;;;4957581;28;20438;-69
2022/07/14 11:49:36;;;;;;;3.38;1.20;;;;;;;;;;4953898;28;20043;-69
2022/07/14 11:52:06;;;;;;;4.72;1.15;;;;;;;;;;4968691;28;20097;-70
2022/07/14 11:54:33;;;;;;;2.35;1.33;;;;;;;;;;4992208;28;20038;-70
2022/07/14 11:57:08;;;;;;;2.30;1.40;;;;;;;;;;4992149;28;20046;-70
2022/07/14 11:59:35;;;;;;;6.00;1.40;;;;;;;;;;4957124;28;20111;-70
2022/07/14 12:02:08;;;;;;;2.17;1.00;;;;;;;;;;4953666;28;20042;-71
2022/07/14 12:04:34;;;;;;;2.70;1.23;;;;;;;;;;4953504;28;20039;-71
2022/07/14 12:07:00;;;;;;;2.58;1.02;;;;;;;;;;4953352;28;20114;-71
2022/07/14 12:09:30;;;;;;;2.50;0.98;;;;;;;;;;4953649;29;20031;-69
2022/07/14 12:11:56;;;;;;;3.97;1.70;;;;;;;;;;4953253;28;20114;-69
2022/07/14 12:14:24;;;;;;;3.33;1.13;;;;;;;;;;4953616;28;20502;-71
2022/07/14 12:16:50;;;;;;;3.90;1.20;;;;;;;;;;4953607;28;20027;-70
2022/07/14 12:19:30;;;;;;;4.82;2.05;;;;;;;;;;4953513;28;20475;-70
2022/07/14 12:22:04;;;;;;;3.20;1.30;;;;;;;;;;4953575;29;20027;-68
2022/07/14 12:24:31;;;;;;;1.52;1.10;;;;;;;;;;4953241;28;20478;-69
2022/07/14 12:26:58;;;;;;;4.63;1.08;;;;;;;;;;4955109;28;20027;-71
2022/07/14 12:29:24;;;;;;;1.83;0.85;;;;;;;;;;4957055;29;20047;-70
2022/07/14 12:31:50;;;;;;;1.65;0.80;;;;;;;;;;4990291;28;20080;-70
2022/07/14 12:34:17;;;;;;;1.52;0.90;;;;;;;;;;4995362;28;20092;-70
2022/07/14 12:36:43;;;;;;;2.60;0.95;;;;;;;;;;4983876;28;20117;-70
2022/07/14 12:39:10;;;;;;;2.45;1.20;;;;;;;;;;4994640;28;20031;-70
2022/07/14 12:41:39;;;;;;;3.22;0.90;;;;;;;;;;4995145;28;20121;-72
2022/07/14 12:44:08;;;;;;;1.48;1.00;;;;;;;;;;4995084;28;20034;-69
2022/07/14 12:46:34;;;;;;;2.92;0.93;;;;;;;;;;4995612;28;20026;-69
2022/07/14 12:49:06;;;;;;;2.83;1.35;;;;;;;;;;4982545;28;20119;-69
2022/07/14 12:51:43;;;;;;;2.13;1.05;;;;;;;;;;4959247;28;20031;-70
2022/07/14 12:54:12;;;;;;;2.42;1.10;;;;;;;;;;4958038;28;20486;-70
2022/07/14 12:56:43;;;;;;;5.20;1.20;;;;;;;;;;4956150;28;20035;-69
2022/07/14 12:59:13;;;;;;;1.58;1.10;;;;;;;;;;4973283;28;20367;-72
2022/07/14 13:01:57;;;;;;;2.13;0.93;;;;;;;;;;4969120;28;20502;-69
2022/07/14 13:04:43;;;;;;;3.50;1.08;;;;;;;;;;4955922;28;20090;-71
2022/07/14 13:07:28;;;;;;;3.17;1.00;;;;;;;;;;4956365;29;20487;-69
2022/07/14 13:10:12;;;;;;;5.03;1.35;;;;;;;;;;4956416;28;20118;-69
2022/07/14 13:12:40;;;;;;;3.72;1.17;;;;;;;;;;4955973;28;20058;-69
2022/07/14 13:15:13;;;;;;;2.40;0.93;;;;;;;;;;4955473;28;20023;-69
2022/07/14 13:17:59;;;;;;;1.65;1.00;;;;;;;;;;4964682;28;20181;-68
2022/07/14 13:20:50;;;;;;;2.40;1.10;;;;;;;;;;4972497;28;20042;-69
2022/07/14 13:23:38;;;;;;;2.97;0.90;;;;;;;;;;4973960;28;20035;-70
2022/07/14 13:26:12;;;;;;;1.40;0.90;;;;;;;;;;4973447;28;20066;-70
2022/07/14 13:28:46;;;;;;;4.15;1.00;;;;;;;;;;4994586;28;20515;-71
2022/07/14 13:31:22;;;;;;;1.67;1.00;;;;;;;;;;4994769;28;20034;-71
2022/07/14 13:33:51;;;;;;;3.45;1.00;;;;;;;;;;4994009;28;20050;-71
2022/07/14 13:36:18;;;;;;;2.35;0.85;;;;;;;;;;4993167;28;20054;-69
2022/07/14 13:38:45;;;;;;;1.90;0.98;;;;;;;;;;4972305;28;20070;-70
2022/07/14 13:41:12;;;;;;;1.98;1.10;;;;;;;;;;4955732;28;20023;-70
2022/07/14 13:43:40;;;;;;;2.60;1.02;;;;;;;;;;4955477;29;20086;-69
2022/07/14 13:46:07;;;;;;;2.17;1.10;;;;;;;;;;4955909;28;20093;-70
2022/07/14 13:48:34;;;;;;;2.45;0.90;;;;;;;;;;4961454;28;20030;-71
2022/07/14 13:53:44;;;;;;;1.90;0.90;;;;;;;;;;4973664;28;20042;-71
2022/07/14 13:56:10;;;;;;;2.95;0.90;;;;;;;;;;4974417;28;20019;-70
2022/07/14 13:58:37;;;;;;;2.75;0.90;;;;;;;;;;4968520;28;20413;-70
2022/07/14 14:01:03;;;;;;;3.42;1.15;;;;;;;;;;4958056;28;20483;-72
2022/07/14 14:03:29;;;;;;;1.92;1.08;;;;;;;;;;4958393;28;20418;-70
2022/07/14 14:05:57;;;;;;;3.22;1.10;;;;;;;;;;4962088;28;20043;-72
2022/07/14 14:08:25;;;;;;;1.58;0.90;;;;;;;;;;4955439;29;20027;-72
2022/07/14 14:10:51;;;;;;;1.70;1.17;;;;;;;;;;4955166;29;20031;-71
2022/07/14 14:13:18;;;;;;;3.70;1.00;;;;;;;;;;4965174;28;20041;-71
2022/07/14 14:15:45;;;;;;;1.98;1.00;;;;;;;;;;4972326;28;20041;-71
2022/07/14 14:18:11;;;;;;;1.85;0.80;;;;;;;;;;4955097;28;20031;-69
2022/07/14 14:20:37;;;;;;;1.13;0.95;;;;;;;;;;4963556;28;20474;-70
2022/07/14 14:23:05;;;;;;;5.07;1.00;;;;;;;;;;4967534;28;20033;-69
2022/07/14 14:25:33;;;;;;;1.30;0.80;;;;;;;;;;4968329;28;20030;-71
2022/07/14 14:27:59;;;;;;;3.45;1.13;;;;;;;;;;4974116;28;20069;-70
2022/07/14 14:30:25;;;;;;;4.18;1.00;;;;;;;;;;4969894;28;20038;-70
2022/07/14 14:32:51;;;;;;;2.47;1.00;;;;;;;;;;4965723;28;20118;-72
2022/07/14 14:35:17;;;;;;;5.95;1.10;;;;;;;;;;4965301;28;20441;-71
2022/07/14 14:37:43;;;;;;;3.45;0.80;;;;;;;;;;4967178;28;20042;-70
2022/07/14 14:40:09;;;;;;;2.13;0.90;;;;;;;;;;4956403;28;20032;-71
2022/07/14 14:42:35;;;;;;;2.78;0.98;;;;;;;;;;4967060;28;20382;-70
2022/07/14 14:45:01;;;;;;;3.10;1.20;;;;;;;;;;4964974;28;20023;-70
2022/07/14 14:47:27;;;;;;;1.92;1.02;;;;;;;;;;4964048;28;20038;-70
2022/07/14 14:49:54;;;;;;;2.75;1.20;;;;;;;;;;4962267;28;20031;-69
2022/07/14 14:52:26;;;;;;;4.25;1.20;;;;;;;;;;4957531;28;20069;-69
2022/07/14 14:54:55;;;;;;;1.88;1.00;;;;;;;;;;4963519;28;20147;-70
2022/07/14 14:57:21;;;;;;;1.88;0.88;;;;;;;;;;4973806;28;20061;-68
2022/07/14 14:59:47;;;;;;;3.08;0.80;;;;;;;;;;4974085;28;20039;-70
2022/07/14 15:02:13;;;;;;;3.95;1.20;;;;;;;;;;4973843;28;20108;-68
2022/07/14 15:04:39;;;;;;;3.88;0.85;;;;;;;;;;4954739;28;20478;-68
2022/07/14 15:07:06;;;;;;;3.60;1.13;;;;;;;;;;4966827;28;20038;-69
2022/07/14 15:09:32;;;;;;;2.45;1.17;;;;;;;;;;4973386;28;20062;-69
2022/07/14 15:11:58;;;;;;;5.85;2.10;;;;;;;;;;4973770;28;20055;-69
2022/07/14 15:14:24;;;;;;;4.55;1.20;;;;;;;;;;4970550;28;20382;-68
2022/07/14 15:16:50;;;;;;;3.22;1.15;;;;;;;;;;4972483;28;20184;-70